Time;durP1;ratioP1;P1;durP2;ratioP2;P2;SDS_P1;SDS_P2;PMS_P1;PMS_P2;Temp;Humidity;BMP_temperature;BMP_pressure;BME280_temperature;BME280_humidity;BME280_pressure;Samples;Min_cycle;Max_cycle;Signal;HPM_P1;HPM_P2
2022/01/09 00:00:42;;;;;;;1.67;1.57;;;16.00;57.00;16.90;98101.00;;;;5049253;28;20170;-41
2022/01/09 00:03:08;;;;;;;1.97;1.40;;;16.00;57.20;16.90;98099.00;;;;5048923;28;20182;-41
2022/01/09 00:05:34;;;;;;;1.50;1.40;;;15.90;57.00;16.90;98096.00;;;;5048399;28;20194;-42
2022/01/09 00:08:00;;;;;;;1.70;1.60;;;15.90;57.10;16.80;98099.00;;;;5048781;28;20286;-41
2022/01/09 00:10:30;;;;;;;1.40;1.30;;;15.90;57.30;16.80;98094.00;;;;5049018;28;20174;-40
2022/01/09 00:12:56;;;;;;;1.27;1.27;;;15.80;57.10;16.80;98100.00;;;;5048463;28;20179;-41
2022/01/09 00:15:22;;;;;;;1.50;1.40;;;15.80;57.10;16.80;98085.00;;;;5048827;28;20246;-40
2022/01/09 00:17:48;;;;;;;1.53;1.43;;;15.80;57.10;16.80;98076.00;;;;5048609;28;20194;-41
2022/01/09 00:20:13;;;;;;;1.40;1.30;;;15.80;57.10;16.70;98073.00;;;;5048978;28;20166;-41
2022/01/09 00:25:09;;;;;;;1.60;1.50;;;15.70;57.10;16.70;98066.00;;;;5048471;28;20170;-41
2022/01/09 00:27:38;;;;;;;1.60;1.50;;;15.80;57.20;16.70;98062.00;;;;5050283;28;20699;-40
2022/01/09 00:30:09;;;;;;;1.73;1.50;;;15.70;57.20;16.60;98067.00;;;;5051206;28;20884;-41
2022/01/09 00:32:34;;;;;;;1.20;1.10;;;15.70;57.50;16.60;98063.00;;;;5053298;28;20166;-40
2022/01/09 00:35:00;;;;;;;1.23;1.13;;;15.70;57.40;16.70;98072.00;;;;5057620;28;20173;-40
2022/01/09 00:37:26;;;;;;;1.60;1.50;;;15.70;57.40;16.60;98056.00;;;;5049674;28;20970;-41
2022/01/09 00:39:52;;;;;;;1.10;1.10;;;15.70;57.10;16.60;98058.00;;;;5048375;28;20190;-41
2022/01/09 00:42:18;;;;;;;1.40;1.30;;;15.70;57.30;16.70;98054.00;;;;5048152;28;20178;-41
2022/01/09 00:44:44;;;;;;;1.23;1.20;;;15.70;57.10;16.70;98062.00;;;;5047927;28;20191;-41
2022/01/09 00:47:10;;;;;;;1.50;1.40;;;15.70;57.10;16.70;98051.00;;;;5047797;28;20694;-41
2022/01/09 00:49:36;;;;;;;1.40;1.30;;;15.70;57.20;16.70;98055.00;;;;5047688;28;20162;-40
2022/01/09 00:52:01;;;;;;;1.40;1.27;;;15.70;56.90;16.70;98053.00;;;;5061471;28;20162;-40
2022/01/09 00:54:27;;;;;;;1.50;1.40;;;15.70;56.70;16.70;98057.00;;;;5052858;28;20170;-41
2022/01/09 00:56:53;;;;;;;1.07;1.07;;;15.70;56.90;16.70;98047.00;;;;5049455;28;20193;-41
2022/01/09 00:59:19;;;;;;;1.37;1.27;;;15.70;56.80;16.70;98052.00;;;;5048331;28;20170;-40
2022/01/09 01:01:44;;;;;;;1.60;1.50;;;15.70;56.80;16.70;98044.00;;;;5048728;28;20159;-41
2022/01/09 01:04:10;;;;;;;1.30;1.07;;;15.60;56.90;16.60;98049.00;;;;5048258;28;20589;-41
2022/01/09 01:06:36;;;;;;;1.37;1.27;;;15.60;56.90;16.60;98046.00;;;;5047697;28;20198;-41
2022/01/09 01:09:02;;;;;;;1.17;1.17;;;15.60;56.80;16.60;98053.00;;;;5047780;28;20220;-41
2022/01/09 01:11:27;;;;;;;1.40;1.30;;;15.60;56.70;16.60;98043.00;;;;5047193;28;20170;-42
2022/01/09 01:13:53;;;;;;;1.20;1.20;;;15.60;56.70;16.60;98051.00;;;;5047317;28;20179;-40
2022/01/09 01:16:19;;;;;;;1.40;1.30;;;15.60;56.70;16.60;98038.00;;;;5047758;28;20173;-40
2022/01/09 01:18:45;;;;;;;1.43;1.33;;;15.60;56.80;16.60;98043.00;;;;5047386;28;20597;-42
2022/01/09 01:21:11;;;;;;;1.47;1.37;;;15.60;56.80;16.50;98037.00;;;;5047556;28;20206;-41
2022/01/09 01:23:37;;;;;;;1.23;1.13;;;15.60;56.70;16.50;98046.00;;;;5045789;28;20662;-41
2022/01/09 01:26:03;;;;;;;1.50;1.40;;;15.50;56.60;16.50;98041.00;;;;5047419;28;20305;-40
2022/01/09 01:28:30;;;;;;;1.20;1.20;;;15.60;56.70;16.50;98047.00;;;;5046912;28;20189;-40
2022/01/09 01:30:55;;;;;;;1.13;1.13;;;15.60;56.60;16.50;98049.00;;;;5046726;28;20171;-41
2022/01/09 01:33:21;;;;;;;1.20;1.20;;;15.50;56.80;16.50;98039.00;;;;5046898;28;20232;-41
2022/01/09 01:35:47;;;;;;;1.30;1.20;;;15.50;56.60;16.50;98039.00;;;;5047371;28;20655;-41
2022/01/09 01:38:13;;;;;;;1.27;1.20;;;15.50;56.70;16.40;98041.00;;;;5051294;28;20198;-42
2022/01/09 01:40:40;;;;;;;1.27;1.17;;;15.50;56.70;16.40;98049.00;;;;5059408;28;20174;-41
2022/01/09 01:43:06;;;;;;;1.07;1.07;;;15.50;56.60;16.40;98039.00;;;;5052178;28;20155;-41
2022/01/09 01:45:32;;;;;;;1.23;1.20;;;15.50;56.60;16.40;98049.00;;;;5046811;28;20704;-40
2022/01/09 01:48:05;;;;;;;1.50;1.40;;;15.40;56.50;16.40;98051.00;;;;5046802;28;20212;-40
2022/01/09 01:50:35;;;;;;;1.30;1.30;;;15.40;56.50;16.40;98044.00;;;;5046907;28;20248;-40
2022/01/09 01:53:01;;;;;;;1.10;1.10;;;15.40;56.60;16.40;98050.00;;;;5046658;28;20170;-40
2022/01/09 01:55:28;;;;;;;1.20;1.20;;;15.40;56.60;16.40;98046.00;;;;5045525;28;20162;-40
2022/01/09 01:57:54;;;;;;;1.00;1.00;;;15.30;56.60;16.40;98041.00;;;;5047227;28;20205;-40
2022/01/09 02:00:20;;;;;;;1.23;1.13;;;15.30;56.50;16.40;98049.00;;;;5045347;28;20167;-40
2022/01/09 02:02:46;;;;;;;1.17;1.17;;;15.30;56.70;16.40;98046.00;;;;5045888;28;20170;-41
2022/01/09 02:05:12;;;;;;;1.20;1.20;;;15.30;56.70;16.30;98055.00;;;;5046009;28;20714;-41
2022/01/09 02:07:38;;;;;;;1.13;1.13;;;15.30;56.60;16.30;98048.00;;;;5045086;28;20239;-41
2022/01/09 02:10:07;;;;;;;1.20;1.20;;;15.30;56.70;16.30;98053.00;;;;5046843;28;20173;-41
2022/01/09 02:12:36;;;;;;;1.03;1.03;;;15.30;56.80;16.30;98071.00;;;;5046421;28;20171;-39
2022/01/09 02:15:02;;;;;;;1.00;1.00;;;15.30;56.50;16.30;98070.00;;;;5044863;28;20740;-40
2022/01/09 02:17:28;;;;;;;1.03;1.03;;;15.20;56.50;16.30;98082.00;;;;5045222;28;20190;-41
2022/01/09 02:19:58;;;;;;;1.40;1.27;;;15.20;56.60;16.30;98072.00;;;;5046528;28;20173;-40
2022/01/09 02:22:25;;;;;;;0.80;0.80;;;15.20;56.50;16.30;98075.00;;;;5046189;28;20178;-40
2022/01/09 02:24:52;;;;;;;0.90;0.90;;;15.20;56.60;16.20;98081.00;;;;5046173;28;20174;-40
2022/01/09 02:27:17;;;;;;;1.07;1.07;;;15.10;56.60;16.20;98102.00;;;;5046054;28;20245;-41
2022/01/09 02:29:47;;;;;;;0.93;0.93;;;15.10;56.60;16.20;98108.00;;;;5046584;28;20198;-40
2022/01/09 02:32:15;;;;;;;0.90;0.90;;;15.10;56.70;16.20;98127.00;;;;5045907;28;20154;-41
2022/01/09 02:34:43;;;;;;;1.40;1.30;;;15.10;56.60;16.20;98129.00;;;;5045725;28;20177;-41
2022/01/09 02:37:09;;;;;;;1.10;1.10;;;15.10;56.60;16.20;98138.00;;;;5044831;28;20186;-40
2022/01/09 02:39:35;;;;;;;1.20;1.20;;;15.00;56.60;16.20;98159.00;;;;5045857;28;20193;-40
2022/01/09 02:42:00;;;;;;;1.20;1.20;;;15.00;56.80;16.00;98158.00;;;;5046324;28;20796;-40
2022/01/09 02:44:26;;;;;;;1.00;1.00;;;14.90;56.80;16.20;98171.00;;;;5054817;28;20174;-41
2022/01/09 02:49:18;;;;;;;1.00;1.00;;;14.80;56.70;16.10;98192.00;;;;5047820;28;20654;-41
2022/01/09 02:51:45;;;;;;;1.10;1.10;;;14.80;56.70;16.10;98210.00;;;;5047458;28;20185;-42
2022/01/09 02:56:56;;;;;;;0.90;0.90;;;14.80;56.90;16.10;98216.00;;;;5047459;28;20232;-40
2022/01/09 02:59:21;;;;;;;1.03;1.03;;;14.80;56.90;16.10;98258.00;;;;5046113;28;20808;-41
2022/01/09 03:01:47;;;;;;;1.20;1.20;;;14.70;57.00;15.70;98244.00;;;;5045301;28;20178;-41
2022/01/09 03:04:13;;;;;;;1.30;1.20;;;14.70;57.30;16.00;98254.00;;;;5045043;28;20181;-40
2022/01/09 03:06:39;;;;;;;1.10;1.10;;;14.70;57.30;16.00;98265.00;;;;5045520;28;20225;-41
2022/01/09 03:09:06;;;;;;;0.87;0.87;;;14.80;57.00;16.00;98281.00;;;;5045742;28;20179;-41
2022/01/09 03:11:33;;;;;;;0.93;0.93;;;14.70;57.00;16.00;98300.00;;;;5045014;28;20171;-40
2022/01/09 03:13:58;;;;;;;1.27;1.27;;;14.70;57.00;16.00;98293.00;;;;5045104;28;20872;-40
2022/01/09 03:16:24;;;;;;;1.13;1.13;;;14.70;57.00;15.90;98310.00;;;;5045268;28;20171;-40
2022/01/09 03:18:50;;;;;;;0.90;0.90;;;14.70;56.90;15.90;98314.00;;;;5045281;28;20205;-40
2022/01/09 03:21:16;;;;;;;0.90;0.90;;;14.70;56.90;15.90;98302.00;;;;5046058;28;20564;-41
2022/01/09 03:23:41;;;;;;;1.20;1.10;;;14.70;57.30;15.90;98321.00;;;;5049036;28;20181;-41
2022/01/09 03:26:09;;;;;;;1.20;1.20;;;14.70;57.00;15.90;98318.00;;;;5050093;28;20205;-41
2022/01/09 03:28:35;;;;;;;1.13;1.03;;;14.60;57.80;15.90;98320.00;;;;5048947;28;20281;-40
2022/01/09 03:31:01;;;;;;;1.00;1.00;;;14.60;56.90;15.90;98336.00;;;;5045615;28;20170;-41
2022/01/09 03:33:27;;;;;;;1.03;1.00;;;14.60;57.10;15.90;98333.00;;;;5051561;28;20181;-40
2022/01/09 03:35:52;;;;;;;1.20;1.10;;;14.60;57.20;15.90;98333.00;;;;5060768;28;20181;-39
2022/01/09 03:38:18;;;;;;;1.40;1.30;;;14.60;57.00;15.80;98343.00;;;;5053524;28;20189;-41
2022/01/09 03:40:44;;;;;;;1.13;1.13;;;14.60;57.00;15.80;98346.00;;;;5045810;28;20674;-42
2022/01/09 03:43:09;;;;;;;0.90;0.90;;;14.50;57.00;15.80;98363.00;;;;5045388;28;20186;-43
2022/01/09 03:45:35;;;;;;;1.10;1.00;;;14.50;57.00;15.80;98354.00;;;;5044005;28;20198;-40
2022/01/09 03:48:01;;;;;;;1.27;1.13;;;14.50;57.10;15.80;98357.00;;;;5045197;28;20706;-41
2022/01/09 03:50:27;;;;;;;0.90;0.90;;;14.50;57.10;15.80;98377.00;;;;5045443;28;20177;-40
2022/01/09 03:52:52;;;;;;;1.30;1.30;;;14.50;57.10;15.80;98381.00;;;;5044386;28;20174;-40
2022/01/09 03:55:22;;;;;;;1.30;1.20;;;14.50;57.20;15.70;98389.00;;;;5060658;28;20166;-41
2022/01/09 03:57:48;;;;;;;1.60;1.50;;;14.40;57.50;15.70;98408.00;;;;5045494;28;20202;-40
2022/01/09 04:00:18;;;;;;;1.27;1.17;;;14.50;57.20;15.70;98421.00;;;;5034621;28;20205;-40
2022/01/09 04:02:44;;;;;;;1.70;1.20;;;14.50;57.30;15.70;98419.00;;;;5024866;28;20345;-40
2022/01/09 04:05:10;;;;;;;2.30;1.50;;;14.40;57.10;15.70;98415.00;;;;5024619;28;20198;-41
2022/01/09 04:07:37;;;;;;;2.17;1.70;;;14.40;58.00;15.60;98426.00;;;;5025081;28;20205;-41
2022/01/09 04:10:04;;;;;;;4.43;1.20;;;14.40;58.00;15.60;98435.00;;;;5025106;28;20198;-41
2022/01/09 04:12:46;;;;;;;2.23;1.30;;;14.40;57.90;15.60;98433.00;;;;5024137;28;20721;-42
2022/01/09 04:15:12;;;;;;;1.67;1.40;;;14.40;57.70;15.60;98446.00;;;;5023773;28;20209;-41
2022/01/09 04:20:10;;;;;;;4.37;1.50;;;14.40;58.10;15.60;98464.00;;;;5025418;28;20159;-40
2022/01/09 04:22:36;;;;;;;2.60;1.57;;;14.30;57.50;15.60;98486.00;;;;5025117;28;20277;-41
2022/01/09 04:25:02;;;;;;;3.50;1.40;;;14.40;57.70;15.50;98483.00;;;;5025722;28;20435;-40
2022/01/09 04:27:28;;;;;;;2.80;1.60;;;14.40;57.50;15.50;98490.00;;;;5028291;28;20556;-40
2022/01/09 04:29:53;;;;;;;2.40;1.50;;;14.40;57.50;15.50;98494.00;;;;5027066;28;20182;-40
2022/01/09 04:32:19;;;;;;;2.13;1.53;;;14.40;57.70;15.50;98499.00;;;;5027646;28;20171;-42
2022/01/09 04:34:45;;;;;;;3.43;1.73;;;14.40;57.70;15.50;98506.00;;;;5027908;28;20178;-42
2022/01/09 04:37:11;;;;;;;4.33;1.43;;;14.40;57.90;15.50;98521.00;;;;5030604;28;20274;-41
2022/01/09 04:39:36;;;;;;;3.63;1.50;;;14.40;58.10;15.40;98511.00;;;;5037157;28;20175;-41
2022/01/09 04:42:02;;;;;;;3.30;1.43;;;14.30;57.90;15.40;98527.00;;;;5038017;28;20167;-41
2022/01/09 04:44:28;;;;;;;2.23;1.30;;;14.40;57.60;15.40;98520.00;;;;5027322;28;20666;-41
2022/01/09 04:47:03;;;;;;;1.90;1.50;;;14.30;57.70;15.40;98537.00;;;;5029262;28;20199;-41
2022/01/09 04:49:35;;;;;;;2.77;1.60;;;14.30;57.80;15.40;98544.00;;;;5029079;28;20182;-41
2022/01/09 04:52:03;;;;;;;5.50;1.63;;;14.30;57.80;15.40;98523.00;;;;5028176;28;20688;-40
2022/01/09 04:54:29;;;;;;;3.10;1.50;;;14.30;57.90;15.40;98544.00;;;;5027845;28;20156;-41
2022/01/09 04:56:55;;;;;;;4.57;1.90;;;14.30;57.70;15.40;98561.00;;;;5027849;28;20867;-41
2022/01/09 04:59:20;;;;;;;3.33;1.80;;;14.30;57.60;15.40;98567.00;;;;5027407;28;20175;-40
2022/01/09 05:01:46;;;;;;;4.53;2.00;;;14.30;57.50;15.40;98580.00;;;;5027454;28;20167;-41
2022/01/09 05:04:12;;;;;;;6.30;2.23;;;14.30;57.50;15.40;98592.00;;;;5027563;28;20537;-40
2022/01/09 05:06:37;;;;;;;4.37;2.27;;;14.20;57.70;15.40;98588.00;;;;5027907;28;20183;-40
2022/01/09 05:09:03;;;;;;;6.43;1.93;;;14.30;57.70;15.40;98603.00;;;;5027272;28;20695;-41
2022/01/09 05:11:29;;;;;;;3.40;1.83;;;14.20;57.60;15.40;98509.00;;;;5027807;28;20178;-41
2022/01/09 05:13:54;;;;;;;4.87;2.03;;;14.20;57.60;15.40;98605.00;;;;5027236;28;20206;-40
2022/01/09 05:16:21;;;;;;;7.73;2.07;;;14.20;57.70;15.30;98527.00;;;;5027482;28;20199;-41
2022/01/09 05:18:58;;;;;;;4.83;2.10;;;14.20;57.60;15.30;98626.00;;;;5027159;28;20201;-40
2022/01/09 05:21:24;;;;;;;5.10;2.00;;;14.10;57.80;15.30;98636.00;;;;5027520;28;20181;-40
2022/01/09 05:23:49;;;;;;;3.83;2.00;;;14.00;57.80;15.30;98641.00;;;;5042199;28;20175;-41
2022/01/09 05:26:15;;;;;;;4.93;2.23;;;14.10;57.70;15.30;98653.00;;;;5027270;28;20195;-40
2022/01/09 05:28:41;;;;;;;3.43;1.90;;;14.10;57.60;15.30;98661.00;;;;5033293;28;20564;-41
2022/01/09 05:31:07;;;;;;;4.90;2.10;;;14.10;57.60;15.20;98659.00;;;;5046897;28;20179;-40
2022/01/09 05:33:32;;;;;;;4.47;2.20;;;14.10;57.70;15.30;98669.00;;;;5046560;28;20174;-41
2022/01/09 05:35:58;;;;;;;4.07;2.07;;;14.00;57.70;15.20;98671.00;;;;5046981;28;20705;-41
2022/01/09 05:38:24;;;;;;;4.17;2.10;;;14.10;57.70;15.20;98690.00;;;;5046970;28;20198;-41
2022/01/09 05:40:50;;;;;;;6.23;2.10;;;14.00;57.60;15.20;98697.00;;;;5046995;28;20174;-41
2022/01/09 05:43:15;;;;;;;3.90;2.30;;;14.00;57.60;15.20;98704.00;;;;5046589;28;20205;-40
2022/01/09 05:45:41;;;;;;;4.27;2.00;;;14.00;58.60;15.20;98711.00;;;;5052514;28;20668;-41
2022/01/09 05:48:07;;;;;;;2.97;2.10;;;13.90;57.70;15.20;98712.00;;;;5054152;28;20231;-40
2022/01/09 05:50:34;;;;;;;3.33;2.10;;;13.90;57.50;15.20;98707.00;;;;5047059;28;20178;-42
2022/01/09 05:52:59;;;;;;;4.07;2.37;;;14.00;57.80;15.20;98739.00;;;;5045819;28;20228;-42
2022/01/09 05:55:25;;;;;;;3.17;2.17;;;13.90;57.70;15.20;98737.00;;;;5046475;28;20170;-41
2022/01/09 05:57:51;;;;;;;5.70;2.13;;;13.90;57.70;15.20;98747.00;;;;5045640;28;20244;-42
2022/01/09 06:00:17;;;;;;;3.60;2.17;;;14.00;57.70;15.10;98747.00;;;;5046276;28;20186;-40
2022/01/09 06:02:42;;;;;;;2.87;1.90;;;14.00;57.50;15.10;98743.00;;;;5046229;28;20185;-41
2022/01/09 06:05:08;;;;;;;3.33;2.03;;;14.00;57.50;15.10;98752.00;;;;5046654;28;20170;-41
2022/01/09 06:07:38;;;;;;;3.03;2.10;;;13.90;57.60;15.10;98755.00;;;;5045634;28;20234;-40
2022/01/09 06:10:05;;;;;;;2.83;2.00;;;13.90;57.50;15.10;98755.00;;;;5045129;28;20170;-42
2022/01/09 06:12:30;;;;;;;2.50;1.83;;;13.90;57.60;15.10;98766.00;;;;5045495;28;20186;-41
2022/01/09 06:14:56;;;;;;;2.37;2.03;;;13.90;57.60;15.10;98779.00;;;;5046299;28;20217;-40
2022/01/09 06:17:22;;;;;;;4.33;2.20;;;13.90;57.60;15.10;98777.00;;;;5046313;28;20190;-42
2022/01/09 06:19:47;;;;;;;4.13;2.20;;;13.90;58.00;15.10;98793.00;;;;5046669;28;20185;-42
2022/01/09 06:22:18;;;;;;;2.93;2.07;;;13.80;57.70;15.00;98781.00;;;;5046082;28;20557;-45
2022/01/09 06:24:47;;;;;;;3.60;2.17;;;13.90;57.70;15.00;98795.00;;;;5046061;28;20174;-40
2022/01/09 06:27:14;;;;;;;3.30;1.97;;;13.80;57.70;15.00;98808.00;;;;5046377;28;20210;-41
2022/01/09 06:29:39;;;;;;;4.10;2.03;;;13.80;57.80;15.00;98814.00;;;;5046564;28;20659;-40
2022/01/09 06:32:06;;;;;;;3.23;2.00;;;13.90;57.60;15.00;98824.00;;;;5067418;28;20250;-40
2022/01/09 06:34:32;;;;;;;2.47;2.03;;;13.80;57.60;15.00;98824.00;;;;5052729;28;20642;-41
2022/01/09 06:36:57;;;;;;;3.20;2.13;;;13.80;57.50;15.00;98830.00;;;;5048085;28;20265;-40
2022/01/09 06:39:23;;;;;;;4.07;2.23;;;13.80;57.70;15.00;98847.00;;;;5047197;28;20171;-41
2022/01/09 06:41:49;;;;;;;2.60;2.07;;;13.70;57.70;14.90;98849.00;;;;5048191;28;20206;-41
2022/01/09 06:44:15;;;;;;;4.10;2.33;;;13.70;57.70;14.90;98851.00;;;;5047391;28;20200;-40
2022/01/09 06:46:41;;;;;;;3.47;2.13;;;13.80;57.60;14.90;98849.00;;;;5045118;28;20198;-41
2022/01/09 06:49:07;;;;;;;2.50;1.90;;;13.80;57.60;14.90;98853.00;;;;5046160;28;20163;-42
2022/01/09 06:51:33;;;;;;;3.80;2.20;;;13.70;57.60;14.90;98863.00;;;;5050414;28;20257;-41
2022/01/09 06:53:59;;;;;;;4.53;2.30;;;13.70;58.10;14.90;98869.00;;;;5047329;28;20174;-40
2022/01/09 06:56:24;;;;;;;4.13;2.20;;;13.70;57.50;14.90;98871.00;;;;5045887;28;20170;-41
2022/01/09 06:58:50;;;;;;;3.03;2.20;;;13.70;57.40;14.90;98885.00;;;;5045948;28;20303;-41
2022/01/09 07:01:16;;;;;;;3.73;2.00;;;13.70;57.60;14.90;98889.00;;;;5046228;28;20628;-42
2022/01/09 07:03:41;;;;;;;3.70;2.23;;;13.60;57.50;14.90;98900.00;;;;5045807;28;20178;-41
2022/01/09 07:06:07;;;;;;;3.47;1.80;;;13.70;57.70;14.90;98901.00;;;;5045665;28;20241;-41
2022/01/09 07:08:35;;;;;;;3.20;1.90;;;13.60;57.60;14.90;98902.00;;;;5045758;28;20240;-41
2022/01/09 07:11:02;;;;;;;4.30;2.30;;;13.60;57.50;14.80;98909.00;;;;5045237;28;20664;-41
2022/01/09 07:13:28;;;;;;;3.00;2.03;;;13.60;57.70;14.80;98922.00;;;;5044227;28;20174;-41
2022/01/09 07:15:54;;;;;;;3.30;2.03;;;13.60;57.60;14.80;98923.00;;;;5044867;28;20239;-42
2022/01/09 07:18:20;;;;;;;2.70;2.03;;;13.60;57.70;14.80;98917.00;;;;5045576;28;20205;-41
2022/01/09 07:20:45;;;;;;;2.90;2.00;;;13.60;57.80;14.80;98931.00;;;;5045649;28;20185;-40
2022/01/09 07:23:11;;;;;;;2.97;1.93;;;13.50;57.70;14.80;98944.00;;;;5045444;28;20587;-40
2022/01/09 07:25:37;;;;;;;3.00;2.17;;;13.60;57.80;14.80;98949.00;;;;5046367;28;20792;-41
2022/01/09 07:28:03;;;;;;;3.00;1.97;;;13.60;57.80;14.80;98945.00;;;;5046362;28;20197;-41
2022/01/09 07:30:29;;;;;;;3.30;2.00;;;13.60;57.50;14.80;98959.00;;;;5047065;28;20655;-40
2022/01/09 07:32:55;;;;;;;3.17;2.20;;;13.60;57.50;14.70;98967.00;;;;5045114;28;20171;-41
2022/01/09 07:35:21;;;;;;;2.57;1.93;;;13.50;57.50;14.70;98957.00;;;;5045876;28;20547;-40
2022/01/09 07:37:47;;;;;;;2.67;1.80;;;13.50;57.50;14.70;98957.00;;;;5045101;28;20205;-40
2022/01/09 07:40:13;;;;;;;3.17;2.00;;;13.50;57.50;14.70;98972.00;;;;5045661;28;20170;-41
2022/01/09 07:42:39;;;;;;;3.63;2.17;;;13.50;57.60;14.70;98977.00;;;;5027560;28;20179;-39
2022/01/09 07:45:07;;;;;;;2.70;2.00;;;13.50;57.50;14.70;98973.00;;;;5045771;28;20175;-41
2022/01/09 07:47:36;;;;;;;3.83;2.10;;;13.50;57.70;14.70;98979.00;;;;5045197;28;20745;-41
2022/01/09 07:50:05;;;;;;;2.97;1.90;;;13.50;57.70;14.70;98991.00;;;;5046336;28;20645;-46
2022/01/09 07:52:34;;;;;;;2.70;1.87;;;13.50;57.40;14.60;98994.00;;;;5049382;28;20686;-41
2022/01/09 07:55:00;;;;;;;2.90;1.97;;;13.50;57.50;14.70;99005.00;;;;5050206;28;20189;-40
2022/01/09 07:57:25;;;;;;;3.77;2.10;;;13.50;57.40;14.70;99015.00;;;;5049008;28;20587;-41
2022/01/09 07:59:51;;;;;;;2.37;2.00;;;13.50;57.60;14.60;99009.00;;;;5047767;28;20190;-41
2022/01/09 08:02:17;;;;;;;3.77;2.00;;;13.40;57.60;14.60;99008.00;;;;5053203;28;20205;-40
2022/01/09 08:04:43;;;;;;;2.80;2.20;;;13.40;57.60;14.60;99020.00;;;;5053361;28;20174;-41
2022/01/09 08:07:08;;;;;;;2.57;1.90;;;13.40;57.60;14.60;99026.00;;;;5050001;28;20597;-40
2022/01/09 08:09:34;;;;;;;3.50;2.10;;;13.40;57.60;14.60;99032.00;;;;5049087;28;20167;-41
2022/01/09 08:12:00;;;;;;;2.90;2.00;;;13.40;57.50;14.60;99032.00;;;;5048694;28;20177;-41
2022/01/09 08:14:25;;;;;;;3.10;2.00;;;13.40;57.60;14.60;99034.00;;;;5048185;28;20659;-41
2022/01/09 08:16:51;;;;;;;2.53;1.80;;;13.40;57.60;14.60;99050.00;;;;5048969;28;20194;-41
2022/01/09 08:19:17;;;;;;;2.70;1.90;;;13.30;57.60;14.60;99042.00;;;;5052122;28;20174;-41
2022/01/09 08:21:42;;;;;;;2.87;2.00;;;13.30;57.60;14.50;99054.00;;;;5057232;28;20754;-43
2022/01/09 08:24:10;;;;;;;2.70;1.80;;;13.30;57.60;14.50;99047.00;;;;5060117;28;20174;-41
2022/01/09 08:26:35;;;;;;;4.17;2.10;;;13.20;57.50;14.50;99062.00;;;;5061584;28;20291;-41
2022/01/09 08:29:02;;;;;;;2.90;2.10;;;13.30;57.70;14.50;99052.00;;;;5050341;28;20223;-40
2022/01/09 08:31:28;;;;;;;2.80;1.90;;;13.30;57.60;14.50;99064.00;;;;5050494;28;20170;-41
2022/01/09 08:33:53;;;;;;;2.67;1.80;;;13.30;57.70;14.50;99078.00;;;;5049926;28;20171;-40
2022/01/09 08:36:19;;;;;;;3.47;2.13;;;13.30;57.70;14.50;99067.00;;;;5049869;28;20179;-42
2022/01/09 08:38:45;;;;;;;3.40;2.07;;;13.30;57.90;14.50;99079.00;;;;5047407;28;20240;-41
2022/01/09 08:41:11;;;;;;;3.40;2.30;;;13.30;57.60;14.50;99081.00;;;;5042599;28;20174;-41
2022/01/09 08:43:37;;;;;;;2.53;1.80;;;13.30;57.60;14.10;99088.00;;;;5038147;28;20189;-41
2022/01/09 08:46:02;;;;;;;4.73;2.00;;;13.30;58.10;14.50;99092.00;;;;5028858;28;20200;-41
2022/01/09 08:48:28;;;;;;;3.47;2.00;;;13.30;58.10;14.50;99094.00;;;;5028751;28;20186;-41
2022/01/09 08:50:54;;;;;;;4.03;1.93;;;13.40;58.10;14.50;99107.00;;;;5029068;28;20160;-40
2022/01/09 08:53:19;;;;;;;3.80;2.20;;;13.50;58.20;14.60;99097.00;;;;5028447;28;20916;-41
2022/01/09 08:55:45;;;;;;;3.00;2.10;;;13.70;58.30;14.60;99101.00;;;;5028677;28;20475;-41
2022/01/09 08:58:11;;;;;;;3.73;1.73;;;14.00;58.10;14.70;99116.00;;;;5028386;28;20433;-42
2022/01/09 09:00:36;;;;;;;3.20;2.00;;;14.20;57.80;14.80;99109.00;;;;5028432;28;20171;-41
2022/01/09 09:03:04;;;;;;;2.50;1.87;;;14.50;57.50;15.00;99112.00;;;;5027991;28;20171;-41
2022/01/09 09:05:30;;;;;;;2.93;1.80;;;14.80;57.40;15.20;99113.00;;;;5028099;28;20774;-41
2022/01/09 09:07:56;;;;;;;3.23;1.97;;;15.00;57.10;15.30;99120.00;;;;5027948;28;20180;-41
2022/01/09 09:10:22;;;;;;;4.03;1.90;;;15.40;56.80;15.50;99126.00;;;;5027983;28;20175;-41
2022/01/09 09:12:48;;;;;;;5.83;2.23;;;15.70;56.70;15.70;99114.00;;;;5027243;28;20163;-46
2022/01/09 09:15:13;;;;;;;5.47;2.23;;;15.90;56.20;15.90;99119.00;;;;5027630;28;20626;-41
2022/01/09 09:17:39;;;;;;;4.87;2.27;;;16.20;56.50;16.10;99116.00;;;;5028090;28;20717;-41
2022/01/09 09:20:05;;;;;;;4.93;2.33;;;16.30;57.00;16.20;99114.00;;;;5028385;28;20618;-41
2022/01/09 09:22:31;;;;;;;5.17;2.20;;;16.40;57.80;16.30;99130.00;;;;5029048;28;20194;-41
2022/01/09 09:24:57;;;;;;;6.73;2.37;;;16.60;58.00;16.50;99133.00;;;;5030940;28;20408;-40
2022/01/09 09:27:29;;;;;;;5.63;2.37;;;16.70;57.90;16.60;99142.00;;;;5037751;28;20715;-41
2022/01/09 09:29:57;;;;;;;6.37;2.30;;;16.80;58.00;16.70;99146.00;;;;5030336;28;20167;-41
2022/01/09 09:32:23;;;;;;;5.83;2.37;;;16.90;58.30;16.80;99146.00;;;;5030148;28;20225;-41
2022/01/09 09:34:49;;;;;;;5.73;2.73;;;16.80;58.10;16.80;99146.00;;;;5029483;28;20167;-40
2022/01/09 09:37:14;;;;;;;10.43;3.47;;;16.80;58.20;16.90;99153.00;;;;5029908;28;20197;-40
2022/01/09 09:39:40;;;;;;;13.67;3.67;;;16.80;58.50;17.00;99155.00;;;;5030231;28;20175;-40
2022/01/09 09:42:06;;;;;;;8.97;3.47;;;17.00;58.70;17.00;99165.00;;;;5029739;28;20217;-40
2022/01/09 09:44:32;;;;;;;9.00;3.50;;;17.00;58.60;17.10;99163.00;;;;5029816;28;20203;-41
2022/01/09 09:46:57;;;;;;;9.13;3.60;;;17.10;58.80;17.20;99163.00;;;;5029923;28;20199;-39
2022/01/09 09:49:23;;;;;;;7.77;3.63;;;17.00;58.60;17.20;99168.00;;;;5029047;28;20532;-41
2022/01/09 09:51:49;;;;;;;10.33;3.73;;;17.10;58.50;17.30;99172.00;;;;5028467;28;20229;-41
2022/01/09 09:54:15;;;;;;;11.17;4.17;;;17.10;58.50;17.30;99174.00;;;;5029087;28;20164;-40
2022/01/09 09:56:40;;;;;;;7.17;3.50;;;17.10;58.60;17.30;99176.00;;;;5028719;28;20164;-40
2022/01/09 09:59:06;;;;;;;13.30;3.97;;;17.10;58.60;17.40;99184.00;;;;5028541;28;20186;-40
2022/01/09 10:01:35;;;;;;;9.87;3.43;;;17.10;59.20;17.40;99178.00;;;;5037995;28;20182;-40
2022/01/09 10:04:08;;;;;;;12.27;3.70;;;17.10;59.30;17.40;99198.00;;;;5049245;28;20154;-40
2022/01/09 10:06:38;;;;;;;8.83;3.20;;;17.10;59.20;17.40;99201.00;;;;5047774;28;20853;-40
2022/01/09 10:09:21;;;;;;;7.50;3.03;;;17.20;59.00;17.40;99200.00;;;;5051797;28;20175;-41
2022/01/09 10:11:51;;;;;;;9.37;3.53;;;17.10;58.90;17.40;99212.00;;;;5049188;28;20181;-41
2022/01/09 10:14:28;;;;;;;9.20;3.33;;;17.00;59.00;17.50;99129.00;;;;5048806;28;20197;-39
2022/01/09 10:17:21;;;;;;;6.20;3.13;;;17.00;59.00;17.50;99217.00;;;;5050469;28;20224;-40
2022/01/09 10:19:50;;;;;;;8.00;3.07;;;17.00;58.90;17.40;99213.00;;;;5060177;28;20170;-40
2022/01/09 10:22:33;;;;;;;10.23;3.30;;;16.90;58.90;17.40;99224.00;;;;5050107;28;20224;-40
2022/01/09 10:25:27;;;;;;;11.83;3.50;;;16.90;58.90;17.40;99226.00;;;;5050194;28;20158;-41
2022/01/09 10:28:04;;;;;;;14.73;3.40;;;16.90;59.30;17.40;99217.00;;;;5051644;28;20263;-40
2022/01/09 10:31:02;;;;;;;13.50;3.50;;;16.90;59.70;17.40;99231.00;;;;5050167;28;20162;-40
2022/01/09 10:33:30;;;;;;;8.03;3.13;;;17.00;59.20;17.50;99247.00;;;;5048670;28;20205;-40
2022/01/09 10:35:56;;;;;;;8.27;3.00;;;17.10;59.00;17.50;99240.00;;;;5049222;28;20181;-40
2022/01/09 10:38:27;;;;;;;7.63;2.90;;;17.10;58.90;17.50;99239.00;;;;5048863;28;20814;-40
2022/01/09 10:40:57;;;;;;;9.90;3.07;;;17.20;58.70;17.50;99223.00;;;;5047925;28;20170;-40
2022/01/09 10:43:25;;;;;;;6.20;3.10;;;17.30;58.70;17.60;99240.00;;;;5048083;28;20606;-42
2022/01/09 10:45:59;;;;;;;12.30;3.43;;;17.20;58.70;17.60;99252.00;;;;5049115;28;20165;-40
2022/01/09 10:48:39;;;;;;;11.77;3.33;;;17.30;59.40;17.70;99258.00;;;;5048855;28;20193;-40
2022/01/09 10:51:07;;;;;;;10.97;3.30;;;17.30;58.70;17.70;99262.00;;;;5049606;28;20162;-40
2022/01/09 10:53:37;;;;;;;12.27;3.30;;;17.40;58.60;17.70;99259.00;;;;5045806;28;20192;-41
2022/01/09 10:56:15;;;;;;;9.23;3.10;;;17.40;58.40;17.70;99263.00;;;;5039754;28;20190;-41
2022/01/09 10:58:48;;;;;;;9.27;3.33;;;17.50;58.30;17.80;99265.00;;;;5036979;28;20190;-40
2022/01/09 11:01:18;;;;;;;8.27;2.77;;;17.40;58.10;17.80;99272.00;;;;5038737;28;20624;-41
2022/01/09 11:03:50;;;;;;;7.93;2.87;;;17.40;58.20;17.80;99282.00;;;;5043933;28;20179;-41